sensor_id;sensor_type;location;lat;lon;timestamp;pressure;altitude;pressure_sealevel;temperature;humidity
43125;BME280;49182;50.788;7.318;2022-09-29T00:02:00;99312.53;;;6.94;94.71
43125;BME280;49182;50.788;7.318;2022-09-29T00:04:27;99281.41;;;6.71;95.05
43125;BME280;49182;50.788;7.318;2022-09-29T00:06:54;99318.34;;;6.87;95.61
43125;BME280;49182;50.788;7.318;2022-09-29T00:09:20;99310.63;;;6.86;95.26
43125;BME280;49182;50.788;7.318;2022-09-29T00:11:47;99297.16;;;6.71;95.70
43125;BME280;49182;50.788;7.318;2022-09-29T00:14:13;99303.22;;;6.72;95.98
43125;BME280;49182;50.788;7.318;2022-09-29T00:16:41;99319.34;;;6.77;96.33
43125;BME280;49182;50.788;7.318;2022-09-29T00:19:08;99297.44;;;6.59;96.59
43125;BME280;49182;50.788;7.318;2022-09-29T00:21:34;99318.78;;;6.73;95.92
43125;BME280;49182;50.788;7.318;2022-09-29T00:24:01;99323.06;;;6.74;96.80
43125;BME280;49182;50.788;7.318;2022-09-29T00:26:28;99284.91;;;6.53;96.28
43125;BME280;49182;50.788;7.318;2022-09-29T00:28:57;99316.34;;;6.72;96.46
43125;BME280;49182;50.788;7.318;2022-09-29T00:31:25;99311.63;;;6.75;96.42
43125;BME280;49182;50.788;7.318;2022-09-29T00:33:53;99276.03;;;6.63;94.58
43125;BME280;49182;50.788;7.318;2022-09-29T00:36:21;99314.69;;;6.71;95.49
43125;BME280;49182;50.788;7.318;2022-09-29T00:38:49;99297.44;;;6.59;96.47
43125;BME280;49182;50.788;7.318;2022-09-29T00:41:18;99273.31;;;6.36;96.46
43125;BME280;49182;50.788;7.318;2022-09-29T00:43:54;99314.53;;;6.63;95.81
43125;BME280;49182;50.788;7.318;2022-09-29T00:46:32;99285.88;;;6.42;96.60
43125;BME280;49182;50.788;7.318;2022-09-29T00:49:12;99313.75;;;6.53;96.74
43125;BME280;49182;50.788;7.318;2022-09-29T00:51:44;99318.16;;;6.52;97.14
43125;BME280;49182;50.788;7.318;2022-09-29T00:54:13;99300.63;;;6.43;97.11
43125;BME280;49182;50.788;7.318;2022-09-29T00:56:40;99304.22;;;6.42;97.14
43125;BME280;49182;50.788;7.318;2022-09-29T00:59:10;99289.59;;;6.30;96.96
43125;BME280;49182;50.788;7.318;2022-09-29T01:01:38;99313.34;;;6.47;97.30
43125;BME280;49182;50.788;7.318;2022-09-29T01:04:10;99312.22;;;6.50;96.64
43125;BME280;49182;50.788;7.318;2022-09-29T01:06:39;99315.41;;;6.44;96.58
43125;BME280;49182;50.788;7.318;2022-09-29T01:09:10;99307.28;;;6.37;97.21
43125;BME280;49182;50.788;7.318;2022-09-29T01:11:39;99311.94;;;6.43;97.08
43125;BME280;49182;50.788;7.318;2022-09-29T01:14:07;99317.31;;;6.42;97.23
43125;BME280;49182;50.788;7.318;2022-09-29T01:16:35;99323.56;;;6.41;97.12
43125;BME280;49182;50.788;7.318;2022-09-29T01:19:05;99268.69;;;6.11;96.90
43125;BME280;49182;50.788;7.318;2022-09-29T01:21:40;99317.75;;;6.37;97.25
43125;BME280;49182;50.788;7.318;2022-09-29T01:27:20;99326.44;;;6.38;97.06
43125;BME280;49182;50.788;7.318;2022-09-29T01:30:11;99333.63;;;6.36;96.66
43125;BME280;49182;50.788;7.318;2022-09-29T01:32:54;99335.28;;;6.37;96.46
43125;BME280;49182;50.788;7.318;2022-09-29T01:35:27;99319.00;;;6.24;97.37
43125;BME280;49182;50.788;7.318;2022-09-29T01:38:17;99324.38;;;6.32;95.80
43125;BME280;49182;50.788;7.318;2022-09-29T01:40:53;99331.16;;;6.34;95.89
43125;BME280;49182;50.788;7.318;2022-09-29T01:43:27;99344.53;;;6.31;95.97
43125;BME280;49182;50.788;7.318;2022-09-29T01:46:01;99341.06;;;6.31;96.12
43125;BME280;49182;50.788;7.318;2022-09-29T01:48:32;99337.75;;;6.19;95.91
43125;BME280;49182;50.788;7.318;2022-09-29T01:51:01;99345.38;;;6.22;95.67
43125;BME280;49182;50.788;7.318;2022-09-29T01:53:35;99343.56;;;6.23;95.29
43125;BME280;49182;50.788;7.318;2022-09-29T01:56:07;99342.16;;;6.19;94.75
43125;BME280;49182;50.788;7.318;2022-09-29T01:58:38;99346.31;;;6.12;96.16
43125;BME280;49182;50.788;7.318;2022-09-29T02:01:10;99315.28;;;5.97;96.65
43125;BME280;49182;50.788;7.318;2022-09-29T02:03:43;99312.66;;;5.88;96.93
43125;BME280;49182;50.788;7.318;2022-09-29T02:06:16;99312.78;;;5.86;96.95
43125;BME280;49182;50.788;7.318;2022-09-29T02:08:47;99320.13;;;5.92;97.28
43125;BME280;49182;50.788;7.318;2022-09-29T02:11:16;99285.44;;;5.69;97.18
43125;BME280;49182;50.788;7.318;2022-09-29T02:13:46;99309.47;;;5.84;97.13
43125;BME280;49182;50.788;7.318;2022-09-29T02:16:15;99341.63;;;6.05;97.75
43125;BME280;49182;50.788;7.318;2022-09-29T02:18:47;99330.72;;;6.00;96.95
43125;BME280;49182;50.788;7.318;2022-09-29T02:21:16;99341.91;;;6.02;97.06
43125;BME280;49182;50.788;7.318;2022-09-29T02:23:42;99339.28;;;6.02;97.23
43125;BME280;49182;50.788;7.318;2022-09-29T02:26:10;99312.91;;;5.85;97.00
43125;BME280;49182;50.788;7.318;2022-09-29T02:28:38;99340.25;;;6.01;97.41
43125;BME280;49182;50.788;7.318;2022-09-29T02:31:05;99337.50;;;6.03;96.59
43125;BME280;49182;50.788;7.318;2022-09-29T02:33:31;99328.66;;;5.94;96.32
43125;BME280;49182;50.788;7.318;2022-09-29T02:36:07;99317.88;;;5.88;96.13
43125;BME280;49182;50.788;7.318;2022-09-29T02:38:42;99345.22;;;6.04;95.79
43125;BME280;49182;50.788;7.318;2022-09-29T02:41:24;99338.44;;;6.02;95.73
43125;BME280;49182;50.788;7.318;2022-09-29T02:44:04;99340.78;;;5.95;96.06
43125;BME280;49182;50.788;7.318;2022-09-29T02:46:44;99346.72;;;5.97;95.47
43125;BME280;49182;50.788;7.318;2022-09-29T02:49:27;99343.69;;;5.92;96.14
43125;BME280;49182;50.788;7.318;2022-09-29T02:52:01;99327.09;;;5.82;96.31
43125;BME280;49182;50.788;7.318;2022-09-29T02:54:47;99328.19;;;5.80;96.34
43125;BME280;49182;50.788;7.318;2022-09-29T02:57:19;99341.19;;;5.91;96.65
43125;BME280;49182;50.788;7.318;2022-09-29T02:59:56;99348.94;;;5.92;96.32
43125;BME280;49182;50.788;7.318;2022-09-29T03:02:25;99315.25;;;5.78;95.38
43125;BME280;49182;50.788;7.318;2022-09-29T03:04:52;99318.81;;;5.77;94.73
43125;BME280;49182;50.788;7.318;2022-09-29T03:07:20;99329.41;;;5.76;95.37
43125;BME280;49182;50.788;7.318;2022-09-29T03:09:47;99350.25;;;5.87;95.55
43125;BME280;49182;50.788;7.318;2022-09-29T03:12:14;99325.97;;;5.75;95.06
43125;BME280;49182;50.788;7.318;2022-09-29T03:14:41;99343.13;;;5.89;94.64
43125;BME280;49182;50.788;7.318;2022-09-29T03:17:08;99324.19;;;5.76;93.85
43125;BME280;49182;50.788;7.318;2022-09-29T03:19:34;99297.53;;;5.51;93.89
43125;BME280;49182;50.788;7.318;2022-09-29T03:22:01;99330.91;;;5.59;94.05
43125;BME280;49182;50.788;7.318;2022-09-29T03:24:29;99350.22;;;5.67;95.64
43125;BME280;49182;50.788;7.318;2022-09-29T03:26:55;99358.88;;;5.68;95.25
43125;BME280;49182;50.788;7.318;2022-09-29T03:29:22;99352.69;;;5.69;94.35
43125;BME280;49182;50.788;7.318;2022-09-29T03:31:49;99351.16;;;5.57;95.17
43125;BME280;49182;50.788;7.318;2022-09-29T03:34:15;99347.16;;;5.53;94.95
43125;BME280;49182;50.788;7.318;2022-09-29T03:36:42;99341.63;;;5.46;95.44
43125;BME280;49182;50.788;7.318;2022-09-29T03:39:08;99351.44;;;5.54;95.77
43125;BME280;49182;50.788;7.318;2022-09-29T03:41:36;99353.75;;;5.57;95.36
43125;BME280;49182;50.788;7.318;2022-09-29T03:44:03;99349.47;;;5.56;95.22
43125;BME280;49182;50.788;7.318;2022-09-29T03:46:30;99314.00;;;5.33;95.03
43125;BME280;49182;50.788;7.318;2022-09-29T03:48:56;99330.84;;;5.40;94.99
43125;BME280;49182;50.788;7.318;2022-09-29T03:51:23;99361.78;;;5.55;94.45
43125;BME280;49182;50.788;7.318;2022-09-29T03:53:49;99357.88;;;5.50;95.50
43125;BME280;49182;50.788;7.318;2022-09-29T03:56:16;99342.56;;;5.36;94.78
43125;BME280;49182;50.788;7.318;2022-09-29T03:58:45;99365.59;;;5.51;94.46
43125;BME280;49182;50.788;7.318;2022-09-29T04:01:15;99366.72;;;5.49;93.55
43125;BME280;49182;50.788;7.318;2022-09-29T04:03:42;99370.94;;;5.40;94.20
43125;BME280;49182;50.788;7.318;2022-09-29T04:06:08;99378.25;;;5.37;94.79
43125;BME280;49182;50.788;7.318;2022-09-29T04:08:35;99376.41;;;5.27;95.84
43125;BME280;49182;50.788;7.318;2022-09-29T04:11:03;99375.44;;;5.28;96.28
43125;BME280;49182;50.788;7.318;2022-09-29T04:13:30;99337.25;;;5.16;95.19
43125;BME280;49182;50.788;7.318;2022-09-29T04:15:59;99319.56;;;4.99;95.40
43125;BME280;49182;50.788;7.318;2022-09-29T04:18:25;99347.94;;;5.13;95.90
43125;BME280;49182;50.788;7.318;2022-09-29T04:20:52;99371.03;;;5.29;96.50
43125;BME280;49182;50.788;7.318;2022-09-29T04:23:19;99369.09;;;5.31;97.16
43125;BME280;49182;50.788;7.318;2022-09-29T04:25:46;99375.88;;;5.34;97.33
43125;BME280;49182;50.788;7.318;2022-09-29T04:28:12;99352.41;;;5.22;97.31
43125;BME280;49182;50.788;7.318;2022-09-29T04:30:39;99378.66;;;5.42;97.34
43125;BME280;49182;50.788;7.318;2022-09-29T04:33:07;99372.59;;;5.41;96.76
43125;BME280;49182;50.788;7.318;2022-09-29T04:35:34;99387.66;;;5.49;97.30
43125;BME280;49182;50.788;7.318;2022-09-29T04:38:02;99375.09;;;5.43;96.92
43125;BME280;49182;50.788;7.318;2022-09-29T04:40:29;99377.84;;;5.51;96.46
43125;BME280;49182;50.788;7.318;2022-09-29T04:42:55;99386.84;;;5.58;97.19
43125;BME280;49182;50.788;7.318;2022-09-29T04:45:22;99319.63;;;5.18;97.10
43125;BME280;49182;50.788;7.318;2022-09-29T04:47:49;99389.75;;;5.64;96.41
43125;BME280;49182;50.788;7.318;2022-09-29T04:50:17;99370.59;;;5.54;96.49
43125;BME280;49182;50.788;7.318;2022-09-29T04:52:44;99390.03;;;5.61;96.37
43125;BME280;49182;50.788;7.318;2022-09-29T04:55:11;99385.19;;;5.57;97.20
43125;BME280;49182;50.788;7.318;2022-09-29T04:57:38;99368.88;;;5.44;96.28
43125;BME280;49182;50.788;7.318;2022-09-29T05:00:07;99397.44;;;5.56;95.56
43125;BME280;49182;50.788;7.318;2022-09-29T05:02:34;99393.69;;;5.49;95.37
43125;BME280;49182;50.788;7.318;2022-09-29T05:05:02;99398.69;;;5.52;95.68
43125;BME280;49182;50.788;7.318;2022-09-29T05:07:30;99388.97;;;5.43;95.73
43125;BME280;49182;50.788;7.318;2022-09-29T05:09:57;99384.03;;;5.40;95.74
43125;BME280;49182;50.788;7.318;2022-09-29T05:12:23;99404.03;;;5.51;95.19
43125;BME280;49182;50.788;7.318;2022-09-29T05:14:50;99386.38;;;5.43;95.46
43125;BME280;49182;50.788;7.318;2022-09-29T05:17:17;99407.06;;;5.56;95.02
43125;BME280;49182;50.788;7.318;2022-09-29T05:19:43;99415.34;;;5.51;95.11
43125;BME280;49182;50.788;7.318;2022-09-29T05:22:10;99411.47;;;5.46;95.70
43125;BME280;49182;50.788;7.318;2022-09-29T05:24:38;99410.75;;;5.44;95.81
43125;BME280;49182;50.788;7.318;2022-09-29T05:27:04;99415.63;;;5.48;94.89
43125;BME280;49182;50.788;7.318;2022-09-29T05:29:31;99416.44;;;5.49;95.73
43125;BME280;49182;50.788;7.318;2022-09-29T05:31:58;99417.25;;;5.49;95.53
43125;BME280;49182;50.788;7.318;2022-09-29T05:34:24;99383.28;;;5.28;94.08
43125;BME280;49182;50.788;7.318;2022-09-29T05:36:51;99414.78;;;5.48;94.60
43125;BME280;49182;50.788;7.318;2022-09-29T05:39:17;99386.75;;;5.29;93.93
43125;BME280;49182;50.788;7.318;2022-09-29T05:41:46;99427.88;;;5.48;94.30
43125;BME280;49182;50.788;7.318;2022-09-29T05:44:13;99419.72;;;5.41;94.36
43125;BME280;49182;50.788;7.318;2022-09-29T05:46:40;99427.44;;;5.43;94.25
43125;BME280;49182;50.788;7.318;2022-09-29T05:49:06;99429.91;;;5.44;93.34
43125;BME280;49182;50.788;7.318;2022-09-29T05:51:33;99434.00;;;5.37;93.69
43125;BME280;49182;50.788;7.318;2022-09-29T05:54:00;99434.81;;;5.38;93.95
43125;BME280;49182;50.788;7.318;2022-09-29T05:56:26;99433.88;;;5.39;93.28
43125;BME280;49182;50.788;7.318;2022-09-29T05:58:54;99437.44;;;5.38;92.96
43125;BME280;49182;50.788;7.318;2022-09-29T06:01:23;99439.09;;;5.39;92.74
43125;BME280;49182;50.788;7.318;2022-09-29T06:03:52;99448.63;;;5.40;93.24
43125;BME280;49182;50.788;7.318;2022-09-29T06:06:21;99413.97;;;5.26;92.55
43125;BME280;49182;50.788;7.318;2022-09-29T06:08:48;99446.72;;;5.42;92.83
43125;BME280;49182;50.788;7.318;2022-09-29T06:11:17;99441.59;;;5.40;92.71
43125;BME280;49182;50.788;7.318;2022-09-29T06:13:45;99443.38;;;5.40;92.25
43125;BME280;49182;50.788;7.318;2022-09-29T06:16:14;99440.06;;;5.38;92.34
43125;BME280;49182;50.788;7.318;2022-09-29T06:18:42;99421.59;;;5.29;92.45
43125;BME280;49182;50.788;7.318;2022-09-29T06:21:10;99413.31;;;5.24;91.90
43125;BME280;49182;50.788;7.318;2022-09-29T06:23:38;99443.28;;;5.41;92.37
43125;BME280;49182;50.788;7.318;2022-09-29T06:26:06;99434.81;;;5.38;92.92
43125;BME280;49182;50.788;7.318;2022-09-29T06:28:33;99430.59;;;5.37;92.13
43125;BME280;49182;50.788;7.318;2022-09-29T06:31:01;99450.59;;;5.47;92.60
43125;BME280;49182;50.788;7.318;2022-09-29T06:33:30;99447.97;;;5.47;92.95
43125;BME280;49182;50.788;7.318;2022-09-29T06:35:58;99429.47;;;5.39;93.27
43125;BME280;49182;50.788;7.318;2022-09-29T06:38:27;99459.00;;;5.51;93.18
43125;BME280;49182;50.788;7.318;2022-09-29T06:40:54;99453.66;;;5.52;93.71
43125;BME280;49182;50.788;7.318;2022-09-29T06:43:21;99418.56;;;5.34;92.76
43125;BME280;49182;50.788;7.318;2022-09-29T06:45:47;99452.41;;;5.56;93.41
43125;BME280;49182;50.788;7.318;2022-09-29T06:48:14;99435.44;;;5.51;93.64
43125;BME280;49182;50.788;7.318;2022-09-29T06:50:42;99456.06;;;5.65;93.34
43125;BME280;49182;50.788;7.318;2022-09-29T06:53:08;99456.91;;;5.75;93.43
43125;BME280;49182;50.788;7.318;2022-09-29T06:55:35;99463.69;;;5.78;93.18
43125;BME280;49182;50.788;7.318;2022-09-29T06:58:02;99465.78;;;5.84;93.09
43125;BME280;49182;50.788;7.318;2022-09-29T07:00:30;99465.50;;;5.87;94.04
43125;BME280;49182;50.788;7.318;2022-09-29T07:02:57;99449.09;;;5.85;94.02
43125;BME280;49182;50.788;7.318;2022-09-29T07:05:24;99451.63;;;5.96;92.78
43125;BME280;49182;50.788;7.318;2022-09-29T07:07:52;99440.63;;;5.92;92.96
43125;BME280;49182;50.788;7.318;2022-09-29T07:10:24;99439.25;;;5.98;92.90
43125;BME280;49182;50.788;7.318;2022-09-29T07:12:50;99426.69;;;5.92;93.63
43125;BME280;49182;50.788;7.318;2022-09-29T07:15:17;99474.91;;;6.29;93.81
43125;BME280;49182;50.788;7.318;2022-09-29T07:17:44;99444.66;;;6.25;93.55
43125;BME280;49182;50.788;7.318;2022-09-29T07:20:11;99476.31;;;6.53;92.86
43125;BME280;49182;50.788;7.318;2022-09-29T07:22:38;99440.69;;;6.50;93.12
43125;BME280;49182;50.788;7.318;2022-09-29T07:25:06;99424.56;;;6.45;93.46
43125;BME280;49182;50.788;7.318;2022-09-29T07:27:33;99457.28;;;6.70;93.29
43125;BME280;49182;50.788;7.318;2022-09-29T07:30:00;99466.22;;;6.86;93.42
43125;BME280;49182;50.788;7.318;2022-09-29T07:32:30;99467.75;;;6.99;93.16
43125;BME280;49182;50.788;7.318;2022-09-29T07:34:57;99465.25;;;7.07;93.33
43125;BME280;49182;50.788;7.318;2022-09-29T07:37:23;99467.72;;;7.18;93.46
43125;BME280;49182;50.788;7.318;2022-09-29T07:39:50;99467.41;;;7.30;93.43
43125;BME280;49182;50.788;7.318;2022-09-29T07:42:18;99433.31;;;7.21;92.94
43125;BME280;49182;50.788;7.318;2022-09-29T07:44:53;99466.53;;;7.59;92.43
43125;BME280;49182;50.788;7.318;2022-09-29T07:47:20;99465.66;;;7.68;92.36
43125;BME280;49182;50.788;7.318;2022-09-29T07:49:46;99475.84;;;7.81;92.42
43125;BME280;49182;50.788;7.318;2022-09-29T07:52:13;99471.22;;;7.92;91.63
43125;BME280;49182;50.788;7.318;2022-09-29T07:54:39;99422.09;;;7.65;91.38
43125;BME280;49182;50.788;7.318;2022-09-29T07:57:06;99434.88;;;7.88;90.85
43125;BME280;49182;50.788;7.318;2022-09-29T07:59:34;99390.75;;;7.64;90.77
43125;BME280;49182;50.788;7.318;2022-09-29T08:02:01;99434.78;;;8.07;90.14
43125;BME280;49182;50.788;7.318;2022-09-29T08:04:27;99479.31;;;8.36;90.51
43125;BME280;49182;50.788;7.318;2022-09-29T08:06:54;99486.25;;;8.37;90.34
43125;BME280;49182;50.788;7.318;2022-09-29T08:09:20;99483.25;;;8.49;89.97
43125;BME280;49182;50.788;7.318;2022-09-29T08:11:59;99424.41;;;8.23;90.11
43125;BME280;49182;50.788;7.318;2022-09-29T08:14:35;99482.50;;;8.75;88.77
43125;BME280;49182;50.788;7.318;2022-09-29T08:17:07;99370.50;;;8.19;87.69
43125;BME280;49182;50.788;7.318;2022-09-29T08:19:34;99495.16;;;9.07;86.93
43125;BME280;49182;50.788;7.318;2022-09-29T08:22:00;99502.94;;;9.16;86.60
43125;BME280;49182;50.788;7.318;2022-09-29T08:24:27;99501.34;;;9.23;86.33
43125;BME280;49182;50.788;7.318;2022-09-29T08:26:53;99503.88;;;9.33;86.56
43125;BME280;49182;50.788;7.318;2022-09-29T08:29:20;99392.81;;;8.68;86.03
43125;BME280;49182;50.788;7.318;2022-09-29T08:31:48;99505.13;;;9.47;85.60
43125;BME280;49182;50.788;7.318;2022-09-29T08:34:14;99514.78;;;9.56;85.79
43125;BME280;49182;50.788;7.318;2022-09-29T08:36:41;99518.25;;;9.64;84.79
43125;BME280;49182;50.788;7.318;2022-09-29T08:39:09;99495.44;;;9.47;83.68
43125;BME280;49182;50.788;7.318;2022-09-29T08:41:45;99497.09;;;9.48;84.73
43125;BME280;49182;50.788;7.318;2022-09-29T08:44:18;99527.97;;;9.64;85.07
43125;BME280;49182;50.788;7.318;2022-09-29T08:47:13;99522.72;;;9.64;84.48
43125;BME280;49182;50.788;7.318;2022-09-29T08:49:45;99473.63;;;9.37;84.64
43125;BME280;49182;50.788;7.318;2022-09-29T08:52:15;99492.03;;;9.55;84.08
43125;BME280;49182;50.788;7.318;2022-09-29T08:54:45;99522.75;;;9.72;82.09
43125;BME280;49182;50.788;7.318;2022-09-29T08:57:16;99518.22;;;9.56;82.75
43125;BME280;49182;50.788;7.318;2022-09-29T08:59:48;99502.16;;;9.42;84.74
43125;BME280;49182;50.788;7.318;2022-09-29T09:02:52;99519.44;;;9.70;85.41
43125;BME280;49182;50.788;7.318;2022-09-29T09:05:29;99515.53;;;9.74;85.36
43125;BME280;49182;50.788;7.318;2022-09-29T09:08:03;99525.19;;;9.91;84.86
43125;BME280;49182;50.788;7.318;2022-09-29T09:10:38;99523.59;;;9.98;84.43
43125;BME280;49182;50.788;7.318;2022-09-29T09:13:20;99531.88;;;10.11;84.29
43125;BME280;49182;50.788;7.318;2022-09-29T09:16:10;99533.22;;;10.15;84.20
43125;BME280;49182;50.788;7.318;2022-09-29T09:21:40;99530.38;;;10.35;83.86
43125;BME280;49182;50.788;7.318;2022-09-29T09:24:15;99523.94;;;10.37;82.26
43125;BME280;49182;50.788;7.318;2022-09-29T09:26:47;99531.03;;;10.45;82.32
43125;BME280;49182;50.788;7.318;2022-09-29T09:29:21;99536.41;;;10.61;82.90
43125;BME280;49182;50.788;7.318;2022-09-29T09:31:54;99531.44;;;10.66;83.86
43125;BME280;49182;50.788;7.318;2022-09-29T09:34:29;99531.13;;;10.77;84.19
43125;BME280;49182;50.788;7.318;2022-09-29T09:37:13;99531.34;;;10.92;83.59
43125;BME280;49182;50.788;7.318;2022-09-29T09:39:45;99523.75;;;11.05;82.92
43125;BME280;49182;50.788;7.318;2022-09-29T09:42:14;99523.09;;;11.11;82.19
43125;BME280;49182;50.788;7.318;2022-09-29T09:44:45;99474.41;;;10.98;83.04
43125;BME280;49182;50.788;7.318;2022-09-29T09:47:22;99525.41;;;11.39;82.42
43125;BME280;49182;50.788;7.318;2022-09-29T09:49:55;99532.16;;;11.49;82.29
43125;BME280;49182;50.788;7.318;2022-09-29T09:52:27;99522.06;;;11.61;82.93
43125;BME280;49182;50.788;7.318;2022-09-29T09:54:57;99520.91;;;11.71;81.50
43125;BME280;49182;50.788;7.318;2022-09-29T09:57:51;99518.47;;;11.78;81.23
43125;BME280;49182;50.788;7.318;2022-09-29T10:00:22;99525.69;;;11.92;81.74
43125;BME280;49182;50.788;7.318;2022-09-29T10:02:52;99500.72;;;11.87;80.61
43125;BME280;49182;50.788;7.318;2022-09-29T10:05:23;99511.91;;;12.05;79.09
43125;BME280;49182;50.788;7.318;2022-09-29T10:07:52;99521.97;;;12.18;79.06
43125;BME280;49182;50.788;7.318;2022-09-29T10:10:21;99501.91;;;12.23;77.43
43125;BME280;49182;50.788;7.318;2022-09-29T10:12:54;99519.41;;;12.40;78.55
43125;BME280;49182;50.788;7.318;2022-09-29T10:15:28;99484.66;;;12.35;78.00
43125;BME280;49182;50.788;7.318;2022-09-29T10:18:02;99500.41;;;12.60;77.60
43125;BME280;49182;50.788;7.318;2022-09-29T10:20:36;99517.66;;;12.78;76.63
43125;BME280;49182;50.788;7.318;2022-09-29T10:23:18;99518.00;;;12.83;76.98
43125;BME280;49182;50.788;7.318;2022-09-29T10:25:51;99523.88;;;12.93;76.54
43125;BME280;49182;50.788;7.318;2022-09-29T10:28:18;99516.50;;;13.04;77.81
43125;BME280;49182;50.788;7.318;2022-09-29T10:30:45;99526.38;;;13.18;76.39
43125;BME280;49182;50.788;7.318;2022-09-29T10:33:15;99531.81;;;13.24;74.66
43125;BME280;49182;50.788;7.318;2022-09-29T10:35:46;99491.47;;;13.14;74.51
43125;BME280;49182;50.788;7.318;2022-09-29T10:38:19;99525.00;;;13.45;74.37
43125;BME280;49182;50.788;7.318;2022-09-29T10:40:56;99527.84;;;13.58;74.17
43125;BME280;49182;50.788;7.318;2022-09-29T10:43:24;99527.88;;;13.72;73.26
43125;BME280;49182;50.788;7.318;2022-09-29T10:45:51;99529.56;;;13.88;71.82
43125;BME280;49182;50.788;7.318;2022-09-29T10:48:18;99530.75;;;14.00;69.90
43125;BME280;49182;50.788;7.318;2022-09-29T10:50:50;99524.81;;;14.13;67.83
43125;BME280;49182;50.788;7.318;2022-09-29T10:53:23;99510.88;;;14.11;65.42
43125;BME280;49182;50.788;7.318;2022-09-29T10:55:53;99531.38;;;14.32;68.35
43125;BME280;49182;50.788;7.318;2022-09-29T10:58:24;99514.63;;;14.31;68.73
43125;BME280;49182;50.788;7.318;2022-09-29T11:01:16;99533.13;;;14.54;67.72
43125;BME280;49182;50.788;7.318;2022-09-29T11:03:47;99506.03;;;14.44;64.13
43125;BME280;49182;50.788;7.318;2022-09-29T11:06:16;99531.19;;;14.63;63.64
43125;BME280;49182;50.788;7.318;2022-09-29T11:08:54;99537.94;;;14.65;64.58
43125;BME280;49182;50.788;7.318;2022-09-29T11:11:23;99509.84;;;14.56;64.08
43125;BME280;49182;50.788;7.318;2022-09-29T11:13:51;99539.00;;;14.85;63.29
43125;BME280;49182;50.788;7.318;2022-09-29T11:16:24;99540.50;;;14.94;64.65
43125;BME280;49182;50.788;7.318;2022-09-29T11:18:54;99522.38;;;14.98;65.48
43125;BME280;49182;50.788;7.318;2022-09-29T11:24:29;99518.50;;;15.22;62.84
43125;BME280;49182;50.788;7.318;2022-09-29T11:27:03;99538.97;;;15.49;63.18
43125;BME280;49182;50.788;7.318;2022-09-29T11:29:36;99537.88;;;15.58;61.42
43125;BME280;49182;50.788;7.318;2022-09-29T11:32:18;99536.75;;;15.74;62.33
43125;BME280;49182;50.788;7.318;2022-09-29T11:35:02;99535.53;;;15.76;59.05
43125;BME280;49182;50.788;7.318;2022-09-29T11:37:43;99530.63;;;15.80;56.02
43125;BME280;49182;50.788;7.318;2022-09-29T11:40:16;99530.03;;;15.78;57.93
43125;BME280;49182;50.788;7.318;2022-09-29T11:42:58;99511.44;;;15.85;58.93
43125;BME280;49182;50.788;7.318;2022-09-29T11:45:36;99531.09;;;16.18;58.63
43125;BME280;49182;50.788;7.318;2022-09-29T11:51:17;99540.59;;;16.75;57.21
43125;BME280;49182;50.788;7.318;2022-09-29T11:54:02;99527.50;;;16.93;53.74
43125;BME280;49182;50.788;7.318;2022-09-29T11:56:40;99522.38;;;16.91;52.85
43125;BME280;49182;50.788;7.318;2022-09-29T11:59:38;99538.22;;;17.13;51.58
43125;BME280;49182;50.788;7.318;2022-09-29T12:02:32;99542.13;;;17.17;50.85
43125;BME280;49182;50.788;7.318;2022-09-29T12:05:11;99542.72;;;17.12;51.04
43125;BME280;49182;50.788;7.318;2022-09-29T12:07:47;99542.34;;;17.22;52.30
43125;BME280;49182;50.788;7.318;2022-09-29T12:10:39;99536.19;;;17.21;52.46
43125;BME280;49182;50.788;7.318;2022-09-29T12:13:18;99526.13;;;17.30;49.90
43125;BME280;49182;50.788;7.318;2022-09-29T12:15:52;99536.41;;;17.33;49.75
43125;BME280;49182;50.788;7.318;2022-09-29T12:18:26;99511.38;;;17.34;49.87
43125;BME280;49182;50.788;7.318;2022-09-29T12:20:55;99533.97;;;17.58;51.38
43125;BME280;49182;50.788;7.318;2022-09-29T12:23:24;99537.69;;;17.76;51.85
43125;BME280;49182;50.788;7.318;2022-09-29T12:26:02;99534.16;;;17.96;49.04
43125;BME280;49182;50.788;7.318;2022-09-29T12:28:35;99535.81;;;17.84;48.37
43125;BME280;49182;50.788;7.318;2022-09-29T12:31:09;99533.16;;;17.84;49.96
43125;BME280;49182;50.788;7.318;2022-09-29T12:33:40;99539.91;;;17.93;48.99
43125;BME280;49182;50.788;7.318;2022-09-29T12:36:17;99538.06;;;17.93;49.18
43125;BME280;49182;50.788;7.318;2022-09-29T12:38:48;99533.34;;;17.89;47.96
43125;BME280;49182;50.788;7.318;2022-09-29T12:41:21;99529.25;;;17.73;48.61
43125;BME280;49182;50.788;7.318;2022-09-29T12:43:53;99527.19;;;17.88;49.69
43125;BME280;49182;50.788;7.318;2022-09-29T12:46:29;99541.28;;;18.08;47.20
43125;BME280;49182;50.788;7.318;2022-09-29T12:49:02;99538.63;;;18.15;45.42
43125;BME280;49182;50.788;7.318;2022-09-29T12:51:31;99531.66;;;18.14;45.71
43125;BME280;49182;50.788;7.318;2022-09-29T12:54:04;99533.69;;;18.18;46.03
43125;BME280;49182;50.788;7.318;2022-09-29T12:56:38;99532.63;;;18.33;44.50
43125;BME280;49182;50.788;7.318;2022-09-29T12:59:11;99525.22;;;18.22;43.69
43125;BME280;49182;50.788;7.318;2022-09-29T13:01:40;99520.13;;;18.20;44.52
43125;BME280;49182;50.788;7.318;2022-09-29T13:04:35;99536.31;;;18.32;45.41
43125;BME280;49182;50.788;7.318;2022-09-29T13:07:19;99533.59;;;18.45;45.85
43125;BME280;49182;50.788;7.318;2022-09-29T13:10:17;99510.13;;;18.53;41.36
43125;BME280;49182;50.788;7.318;2022-09-29T13:13:00;99522.47;;;18.48;40.71
43125;BME280;49182;50.788;7.318;2022-09-29T13:15:44;99523.91;;;18.50;46.06
43125;BME280;49182;50.788;7.318;2022-09-29T13:18:39;99536.88;;;18.47;43.06
43125;BME280;49182;50.788;7.318;2022-09-29T13:21:32;99539.88;;;18.70;43.26
43125;BME280;49182;50.788;7.318;2022-09-29T13:24:19;99541.06;;;18.87;41.20
43125;BME280;49182;50.788;7.318;2022-09-29T13:27:18;99537.56;;;18.87;41.48
43125;BME280;49182;50.788;7.318;2022-09-29T13:29:52;99539.16;;;18.94;43.16
43125;BME280;49182;50.788;7.318;2022-09-29T13:32:21;99516.16;;;18.87;42.19
43125;BME280;49182;50.788;7.318;2022-09-29T13:34:52;99542.84;;;19.00;39.97
43125;BME280;49182;50.788;7.318;2022-09-29T13:37:22;99540.59;;;18.90;40.08
43125;BME280;49182;50.788;7.318;2022-09-29T13:39:53;99541.88;;;18.88;40.57
43125;BME280;49182;50.788;7.318;2022-09-29T13:42:40;99539.03;;;18.76;40.46